createdAt,value
2023-05-14T00:01:16.038Z,8.77
2023-05-14T00:03:42.742Z,8.98
2023-05-14T00:06:10.931Z,8.60
2023-05-14T00:08:37.490Z,8.82
2023-05-14T00:11:08.996Z,8.93
2023-05-14T00:13:37.504Z,9.02
2023-05-14T00:16:04.293Z,8.75
2023-05-14T00:18:30.993Z,8.80
2023-05-14T00:21:00.170Z,8.35
2023-05-14T00:23:26.750Z,9.23
2023-05-14T00:25:53.250Z,8.45
2023-05-14T00:28:20.335Z,9.27
2023-05-14T00:30:47.147Z,9.10
2023-05-14T00:33:16.960Z,8.07
2023-05-14T00:35:43.588Z,8.77
2023-05-14T00:38:11.165Z,8.05
2023-05-14T00:40:38.142Z,8.73
2023-05-14T00:43:04.722Z,7.90
2023-05-14T00:45:31.373Z,8.52
2023-05-14T00:47:57.990Z,9.18
2023-05-14T00:50:24.940Z,8.90
2023-05-14T00:52:51.905Z,9.35
2023-05-14T00:55:19.164Z,9.00
2023-05-14T00:57:46.556Z,8.77
2023-05-14T01:00:13.867Z,7.82
2023-05-14T01:02:40.638Z,8.15
2023-05-14T01:05:08.467Z,9.23
2023-05-14T01:07:41.896Z,8.45
2023-05-14T01:10:11.332Z,8.18
2023-05-14T01:13:07.385Z,8.55
2023-05-14T01:15:36.181Z,8.25
2023-05-14T01:18:13.504Z,8.10
2023-05-14T01:20:42.853Z,8.32
2023-05-14T01:23:12.253Z,7.60
2023-05-14T01:25:38.816Z,8.27
2023-05-14T01:28:19.661Z,8.07
2023-05-14T01:30:57.317Z,7.85
2023-05-14T01:33:30.729Z,7.72
2023-05-14T01:35:58.506Z,7.85
2023-05-14T01:38:28.574Z,7.75
2023-05-14T01:40:56.714Z,8.23
2023-05-14T01:43:23.974Z,8.48
2023-05-14T01:45:50.721Z,8.73
2023-05-14T01:48:17.785Z,8.35
2023-05-14T01:50:44.294Z,8.10
2023-05-14T01:53:10.851Z,7.65
2023-05-14T01:55:37.372Z,8.32
2023-05-14T01:58:03.834Z,7.90
2023-05-14T02:00:36.572Z,8.25
2023-05-14T02:03:03.280Z,8.43
2023-05-14T02:05:30.073Z,7.90
2023-05-14T02:07:56.741Z,7.47
2023-05-14T02:10:23.501Z,8.35
2023-05-14T02:12:50.550Z,7.95
2023-05-14T02:15:17.308Z,8.60
2023-05-14T02:17:43.919Z,8.23
2023-05-14T02:20:10.884Z,7.47
2023-05-14T02:22:39.655Z,7.80
2023-05-14T02:25:07.206Z,8.05
2023-05-14T02:27:35.420Z,7.95
2023-05-14T02:30:02.096Z,8.23
2023-05-14T02:32:28.860Z,8.45
2023-05-14T02:34:55.487Z,8.43
2023-05-14T02:37:22.205Z,8.00
2023-05-14T02:39:49.424Z,8.85
2023-05-14T02:42:16.062Z,8.38
2023-05-14T02:44:42.643Z,8.07
2023-05-14T02:47:10.863Z,8.45
2023-05-14T02:49:37.446Z,7.70
2023-05-14T02:52:04.235Z,8.07
2023-05-14T02:54:30.834Z,8.45
2023-05-14T02:56:57.404Z,8.50
2023-05-14T02:59:24.902Z,8.68
2023-05-14T03:01:52.130Z,8.10
2023-05-14T03:04:19.327Z,8.70
2023-05-14T03:06:45.840Z,8.05
2023-05-14T03:09:12.511Z,8.50
2023-05-14T03:11:39.173Z,8.45
2023-05-14T03:14:05.892Z,8.13
2023-05-14T03:16:32.474Z,7.95
2023-05-14T03:18:59.066Z,8.68
2023-05-14T03:21:26.222Z,7.97
2023-05-14T03:23:53.792Z,7.97
2023-05-14T03:26:21.717Z,7.68
2023-05-14T03:28:48.681Z,8.43
2023-05-14T03:31:15.841Z,7.82
2023-05-14T03:33:44.206Z,8.32
2023-05-14T03:36:10.825Z,8.00
2023-05-14T03:38:37.445Z,8.75
2023-05-14T03:41:03.930Z,8.63
2023-05-14T03:43:30.773Z,8.18
2023-05-14T03:45:57.343Z,8.10
2023-05-14T03:48:24.004Z,8.77
2023-05-14T03:50:51.296Z,8.00
2023-05-14T03:53:18.028Z,8.68
2023-05-14T03:55:44.573Z,8.55
2023-05-14T03:58:14.131Z,7.25
2023-05-14T04:00:42.058Z,8.27
2023-05-14T04:03:09.170Z,7.75
2023-05-14T04:05:36.333Z,7.90
2023-05-14T04:08:02.958Z,7.78
2023-05-14T04:10:29.929Z,8.10
2023-05-14T04:12:56.432Z,7.43
2023-05-14T04:15:24.515Z,8.25
2023-05-14T04:17:51.200Z,6.68
2023-05-14T04:20:17.769Z,7.90
2023-05-14T04:22:44.521Z,7.15
2023-05-14T04:25:11.266Z,7.82
2023-05-14T04:27:37.717Z,7.15
2023-05-14T04:30:04.873Z,8.10
2023-05-14T04:32:31.535Z,7.65
2023-05-14T04:34:58.099Z,6.95
2023-05-14T04:37:24.545Z,6.60
2023-05-14T04:39:51.270Z,7.32
2023-05-14T04:42:20.117Z,7.20
2023-05-14T04:44:51.726Z,7.43
2023-05-14T04:47:18.568Z,7.22
2023-05-14T04:49:45.293Z,7.60
2023-05-14T04:52:12.128Z,7.07
2023-05-14T04:54:38.685Z,8.07
2023-05-14T04:57:07.522Z,7.00
2023-05-14T04:59:37.025Z,6.30
2023-05-14T05:02:03.675Z,6.57
2023-05-14T05:04:30.529Z,6.40
2023-05-14T05:06:57.069Z,7.13
2023-05-14T05:09:23.755Z,6.80
2023-05-14T05:11:50.212Z,7.40
2023-05-14T05:14:16.879Z,6.25
2023-05-14T05:16:43.542Z,6.22
2023-05-14T05:19:10.266Z,5.93
2023-05-14T05:21:39.384Z,6.97
2023-05-14T05:24:06.260Z,5.80
2023-05-14T05:26:32.741Z,5.90
2023-05-14T05:28:59.353Z,6.68
2023-05-14T05:31:25.989Z,6.35
2023-05-14T05:33:52.439Z,6.05
2023-05-14T05:36:18.894Z,6.35
2023-05-14T05:38:45.539Z,6.25
2023-05-14T05:41:12.197Z,6.53
2023-05-14T05:43:38.717Z,5.97
2023-05-14T05:46:05.187Z,6.05
2023-05-14T05:48:31.794Z,6.47
2023-05-14T05:50:58.494Z,6.72
2023-05-14T05:53:24.955Z,6.28
2023-05-14T05:55:54.387Z,6.07
2023-05-14T05:58:20.941Z,6.35
2023-05-14T06:00:47.488Z,5.82
2023-05-14T06:03:14.175Z,6.82
2023-05-14T06:05:40.960Z,5.80
2023-05-14T06:08:07.668Z,5.57
2023-05-14T06:10:35.035Z,6.00
2023-05-14T06:13:01.745Z,5.63
2023-05-14T06:15:28.236Z,6.18
2023-05-14T06:18:03.890Z,6.13
2023-05-14T06:20:30.472Z,6.28
2023-05-14T06:22:56.953Z,6.30
2023-05-14T06:25:23.426Z,5.82
2023-05-14T06:27:49.908Z,5.75
2023-05-14T06:30:16.430Z,5.85
2023-05-14T06:32:43.175Z,5.30
2023-05-14T06:35:13.108Z,5.75
2023-05-14T06:37:39.705Z,4.95
2023-05-14T06:40:09.082Z,6.00
2023-05-14T06:42:35.578Z,5.40
2023-05-14T06:45:02.264Z,6.25
2023-05-14T06:47:32.012Z,5.72
2023-05-14T06:49:58.793Z,5.72
2023-05-14T06:52:25.743Z,5.72
2023-05-14T06:54:52.288Z,6.03
2023-05-14T06:57:18.797Z,6.63
2023-05-14T06:59:45.368Z,5.63
2023-05-14T07:02:12.483Z,5.97
2023-05-14T07:04:39.076Z,5.88
2023-05-14T07:07:05.898Z,5.95
2023-05-14T07:09:32.360Z,5.95
2023-05-14T07:11:58.949Z,5.95
2023-05-14T07:14:26.717Z,6.53
2023-05-14T07:16:53.219Z,6.35
2023-05-14T07:19:19.756Z,5.97
2023-05-14T07:21:46.259Z,6.75
2023-05-14T07:24:12.707Z,5.82
2023-05-14T07:26:39.404Z,5.85
2023-05-14T07:29:06.398Z,5.10
2023-05-14T07:31:33.544Z,6.60
2023-05-14T07:33:59.989Z,6.18
2023-05-14T07:36:29.775Z,5.82
2023-05-14T07:38:56.362Z,6.13
2023-05-14T07:41:22.874Z,5.82
2023-05-14T07:43:49.674Z,5.80
2023-05-14T07:46:16.578Z,6.13
2023-05-14T07:48:43.214Z,6.53
2023-05-14T07:51:09.709Z,6.43
2023-05-14T07:53:36.200Z,6.72
2023-05-14T07:56:02.684Z,6.95
2023-05-14T07:58:30.055Z,6.05
2023-05-14T08:00:57.709Z,6.47
2023-05-14T08:03:24.451Z,6.50
2023-05-14T08:05:52.517Z,6.22
2023-05-14T08:08:22.742Z,7.15
2023-05-14T08:10:51.511Z,6.53
2023-05-14T08:13:18.319Z,6.78
2023-05-14T08:15:44.793Z,6.53
2023-05-14T08:18:11.294Z,7.03
2023-05-14T08:20:37.802Z,6.63
2023-05-14T08:23:04.388Z,7.03
2023-05-14T08:25:31.093Z,6.95
2023-05-14T08:27:59.738Z,6.50
2023-05-14T08:30:26.823Z,6.30
2023-05-14T08:32:53.879Z,6.30
2023-05-14T08:35:20.458Z,7.10
2023-05-14T08:37:47.006Z,6.80
2023-05-14T08:40:13.650Z,5.97
2023-05-14T08:42:45.218Z,6.38
2023-05-14T08:45:25.865Z,7.40
2023-05-14T08:47:55.848Z,7.35
2023-05-14T08:50:23.769Z,6.82
2023-05-14T08:52:51.664Z,6.35
2023-05-14T08:55:19.065Z,6.18
2023-05-14T08:57:46.473Z,6.28
2023-05-14T09:00:16.188Z,5.85
2023-05-14T09:02:44.821Z,6.25
2023-05-14T09:05:12.561Z,5.72
2023-05-14T09:07:39.199Z,5.88
2023-05-14T09:10:06.427Z,5.88
2023-05-14T09:12:32.888Z,6.13
2023-05-14T09:14:59.313Z,5.47
2023-05-14T09:17:27.994Z,5.88
2023-05-14T09:19:54.834Z,5.80
2023-05-14T09:22:21.629Z,5.85
2023-05-14T09:25:06.504Z,5.55
2023-05-14T09:27:35.204Z,5.35
2023-05-14T09:30:10.060Z,5.70
2023-05-14T09:32:38.224Z,5.22
2023-05-14T09:35:18.997Z,5.68
2023-05-14T09:37:48.352Z,5.03
2023-05-14T09:40:15.798Z,5.28
2023-05-14T09:42:42.392Z,5.75
2023-05-14T09:45:10.215Z,5.13
2023-05-14T09:47:38.317Z,5.40
2023-05-14T09:50:06.359Z,6.13
2023-05-14T09:52:33.274Z,5.43
2023-05-14T09:55:00.603Z,5.38
2023-05-14T09:57:27.387Z,5.50
2023-05-14T09:59:54.207Z,6.07
2023-05-14T10:02:37.642Z,5.82
2023-05-14T10:05:08.268Z,4.88
2023-05-14T10:07:49.594Z,5.40
2023-05-14T10:10:19.603Z,5.05
2023-05-14T10:12:57.651Z,5.15
2023-05-14T10:15:59.112Z,5.00
2023-05-14T10:18:31.791Z,4.85
2023-05-14T10:21:05.780Z,4.55
2023-05-14T10:23:32.542Z,4.93
2023-05-14T10:25:59.765Z,5.57
2023-05-14T10:28:26.742Z,4.97
2023-05-14T10:30:54.403Z,5.68
2023-05-14T10:33:21.081Z,5.28
2023-05-14T10:36:07.476Z,5.47
2023-05-14T10:38:36.162Z,4.65
2023-05-14T10:41:07.095Z,4.97
2023-05-14T10:43:38.510Z,4.88
2023-05-14T10:46:05.854Z,4.82
2023-05-14T10:48:33.434Z,5.00
2023-05-14T10:51:01.491Z,4.78
2023-05-14T10:53:33.698Z,4.70
2023-05-14T10:56:11.778Z,4.72
2023-05-14T10:58:40.004Z,4.53
2023-05-14T11:01:08.259Z,5.20
2023-05-14T11:03:42.593Z,4.65
2023-05-14T11:06:11.127Z,5.10
2023-05-14T11:08:38.839Z,4.63
2023-05-14T11:11:06.610Z,4.60
2023-05-14T11:13:34.738Z,4.60
2023-05-14T11:16:11.986Z,4.03
2023-05-14T11:18:53.778Z,4.03
2023-05-14T11:21:20.701Z,4.53
2023-05-14T11:23:47.203Z,4.55
2023-05-14T11:26:13.773Z,4.40
2023-05-14T11:28:40.400Z,5.05
2023-05-14T11:31:07.276Z,3.90
2023-05-14T11:33:33.758Z,5.05
2023-05-14T11:36:00.222Z,5.07
2023-05-14T11:38:26.668Z,4.30
2023-05-14T11:40:58.561Z,4.10
2023-05-14T11:43:29.539Z,4.63
2023-05-14T11:45:57.332Z,3.75
2023-05-14T11:48:24.088Z,4.05
2023-05-14T11:50:52.882Z,4.05
2023-05-14T11:53:28.077Z,4.22
2023-05-14T11:55:55.239Z,4.35
2023-05-14T11:58:21.979Z,4.30
2023-05-14T12:00:52.715Z,4.72
2023-05-14T12:03:26.790Z,3.75
2023-05-14T12:06:00.990Z,4.40
2023-05-14T12:08:31.962Z,4.43
2023-05-14T12:11:00.468Z,4.25
2023-05-14T12:13:30.859Z,4.05
2023-05-14T12:16:00.407Z,3.78
2023-05-14T12:18:31.837Z,4.28
2023-05-14T12:23:32.497Z,3.83
2023-05-14T12:26:17.216Z,4.93
2023-05-14T12:28:47.697Z,5.82
2023-05-14T12:31:15.661Z,4.25
2023-05-14T12:33:42.138Z,3.88
2023-05-14T12:38:40.944Z,4.20
2023-05-14T12:41:07.428Z,4.50
2023-05-14T12:43:33.922Z,4.53
2023-05-14T12:46:00.488Z,4.30
2023-05-14T12:48:26.946Z,4.68
2023-05-14T12:50:53.429Z,3.78
2023-05-14T12:53:19.897Z,3.97
2023-05-14T12:55:46.644Z,4.65
2023-05-14T12:58:13.165Z,4.32
2023-05-14T13:00:39.741Z,3.53
2023-05-14T13:03:06.349Z,4.43
2023-05-14T13:05:33.297Z,4.22
2023-05-14T13:08:02.258Z,4.55
2023-05-14T13:10:28.747Z,4.10
2023-05-14T13:12:56.396Z,4.50
2023-05-14T13:15:23.341Z,4.30
2023-05-14T13:17:50.056Z,5.30
2023-05-14T13:20:18.257Z,5.00
2023-05-14T13:22:45.088Z,4.57
2023-05-14T13:25:11.601Z,3.95
2023-05-14T13:27:38.132Z,4.78
2023-05-14T13:30:04.961Z,3.67
2023-05-14T13:32:31.591Z,3.97
2023-05-14T13:34:58.117Z,5.00
2023-05-14T13:37:25.789Z,4.80
2023-05-14T13:39:52.348Z,4.90
2023-05-14T13:42:18.805Z,4.82
2023-05-14T13:44:45.321Z,3.75
2023-05-14T13:47:13.239Z,4.35
2023-05-14T13:49:40.727Z,4.55
2023-05-14T13:52:07.537Z,4.03
2023-05-14T13:54:35.684Z,4.38
2023-05-14T13:57:02.311Z,3.67
2023-05-14T13:59:28.919Z,3.70
2023-05-14T14:01:55.448Z,4.30
2023-05-14T14:04:22.208Z,4.45
2023-05-14T14:06:49.171Z,3.38
2023-05-14T14:09:15.891Z,4.03
2023-05-14T14:11:42.436Z,4.32
2023-05-14T14:14:10.542Z,3.85
2023-05-14T14:16:37.250Z,4.20
2023-05-14T14:19:03.980Z,3.90
2023-05-14T14:21:31.344Z,3.90
2023-05-14T14:23:57.956Z,3.67
2023-05-14T14:26:24.601Z,3.88
2023-05-14T14:28:51.373Z,3.78
2023-05-14T14:31:17.857Z,4.22
2023-05-14T14:33:44.344Z,3.25
2023-05-14T14:36:11.346Z,3.33
2023-05-14T14:38:39.400Z,3.60
2023-05-14T14:41:10.472Z,4.00
2023-05-14T14:43:38.243Z,2.97
2023-05-14T14:46:04.905Z,3.22
2023-05-14T14:48:37.841Z,2.85
2023-05-14T14:51:08.697Z,3.30
2023-05-14T14:53:36.775Z,3.60
2023-05-14T14:56:03.920Z,2.88
2023-05-14T14:58:31.324Z,4.18
2023-05-14T15:00:58.416Z,3.00
2023-05-14T15:03:25.633Z,2.72
2023-05-14T15:05:53.707Z,3.17
2023-05-14T15:08:27.584Z,3.08
2023-05-14T15:10:57.443Z,3.10
2023-05-14T15:13:24.765Z,3.47
2023-05-14T15:15:52.478Z,3.38
2023-05-14T15:18:19.158Z,3.45
2023-05-14T15:20:45.701Z,3.67
2023-05-14T15:23:12.218Z,4.20
2023-05-14T15:25:38.880Z,3.50
2023-05-14T15:28:08.585Z,4.00
2023-05-14T15:30:35.194Z,3.97
2023-05-14T15:33:01.907Z,3.78
2023-05-14T15:35:29.868Z,3.55
2023-05-14T15:37:59.174Z,3.60
2023-05-14T15:40:27.403Z,3.60
2023-05-14T15:42:54.052Z,3.38
2023-05-14T15:45:20.782Z,3.83
2023-05-14T15:47:50.856Z,3.63
2023-05-14T15:50:17.468Z,3.65
2023-05-14T15:52:44.010Z,3.58
2023-05-14T15:55:11.042Z,3.67
2023-05-14T15:57:37.712Z,3.60
2023-05-14T16:00:11.039Z,4.10
2023-05-14T16:02:38.746Z,3.47
2023-05-14T16:05:05.788Z,3.45
2023-05-14T16:07:33.055Z,4.00
2023-05-14T16:10:02.418Z,4.13
2023-05-14T16:12:30.603Z,4.05
2023-05-14T16:15:00.329Z,3.42
2023-05-14T16:17:28.136Z,3.65
2023-05-14T16:19:56.278Z,3.53
2023-05-14T16:22:23.225Z,3.42
2023-05-14T16:24:49.695Z,3.33
2023-05-14T16:27:18.396Z,3.47
2023-05-14T16:29:45.489Z,3.58
2023-05-14T16:32:14.893Z,4.00
2023-05-14T16:34:41.500Z,3.80
2023-05-14T16:37:08.190Z,4.00
2023-05-14T16:39:34.662Z,4.40
2023-05-14T16:42:03.501Z,4.35
2023-05-14T16:44:29.926Z,4.80
2023-05-14T16:46:56.408Z,3.70
2023-05-14T16:49:23.038Z,3.90
2023-05-14T16:51:49.819Z,3.45
2023-05-14T16:54:16.382Z,3.50
2023-05-14T16:56:48.236Z,3.53
2023-05-14T17:01:42.885Z,3.47
2023-05-14T17:04:10.204Z,3.67
2023-05-14T17:06:37.088Z,3.45
2023-05-14T17:09:04.022Z,3.35
2023-05-14T17:11:33.365Z,3.88
2023-05-14T17:13:59.918Z,3.90
2023-05-14T17:16:27.184Z,4.38
2023-05-14T17:18:53.859Z,3.88
2023-05-14T17:21:20.437Z,4.82
2023-05-14T17:23:46.908Z,5.25
2023-05-14T17:26:13.377Z,5.05
2023-05-14T17:28:39.844Z,5.47
2023-05-14T17:31:06.510Z,5.32
2023-05-14T17:33:34.689Z,5.50
2023-05-14T17:36:01.252Z,6.25
2023-05-14T17:38:27.706Z,5.40
2023-05-14T17:40:57.085Z,4.82
2023-05-14T17:43:25.696Z,5.70
2023-05-14T17:45:54.346Z,5.45
2023-05-14T17:48:22.711Z,5.05
2023-05-14T17:50:49.318Z,5.50
2023-05-14T17:53:15.816Z,5.55
2023-05-14T17:55:43.646Z,4.90
2023-05-14T17:58:13.412Z,5.38
2023-05-14T18:00:40.353Z,5.40
2023-05-14T18:03:07.969Z,5.30
2023-05-14T18:05:34.981Z,6.03
2023-05-14T18:08:01.497Z,4.72
2023-05-14T18:10:29.514Z,5.35
2023-05-14T18:12:56.545Z,4.95
2023-05-14T18:15:25.934Z,4.78
2023-05-14T18:17:52.818Z,5.20
2023-05-14T18:20:19.696Z,5.70
2023-05-14T18:22:49.328Z,5.03
2023-05-14T18:25:21.478Z,5.82
2023-05-14T18:30:15.931Z,4.72
2023-05-14T18:32:45.058Z,4.72
2023-05-14T18:35:13.096Z,5.80
2023-05-14T18:37:39.973Z,4.53
2023-05-14T18:40:07.403Z,4.53
2023-05-14T18:42:34.356Z,4.53
2023-05-14T18:45:01.700Z,4.35
2023-05-14T18:47:28.338Z,4.43
2023-05-14T18:49:57.719Z,4.68
2023-05-14T18:52:26.283Z,4.03
2023-05-14T18:54:53.864Z,4.20
2023-05-14T18:57:21.258Z,4.50
2023-05-14T18:59:47.823Z,4.93
2023-05-14T19:02:14.519Z,3.55
2023-05-14T19:04:51.065Z,4.13
2023-05-14T19:07:19.026Z,3.95
2023-05-14T19:09:45.613Z,4.90
2023-05-14T19:12:12.371Z,4.30
2023-05-14T19:14:38.816Z,4.78
2023-05-14T19:17:05.783Z,4.03
2023-05-14T19:19:32.733Z,4.55
2023-05-14T19:21:59.277Z,5.00
2023-05-14T19:24:25.877Z,5.20
2023-05-14T19:26:52.672Z,5.32
2023-05-14T19:29:19.277Z,5.20
2023-05-14T19:31:46.217Z,5.75
2023-05-14T19:34:12.996Z,5.55
2023-05-14T19:36:39.531Z,5.50
2023-05-14T19:39:06.138Z,5.53
2023-05-14T19:41:32.620Z,5.05
2023-05-14T19:44:02.189Z,4.30
2023-05-14T19:46:29.118Z,4.80
2023-05-14T19:48:55.852Z,4.95
2023-05-14T19:51:23.734Z,4.07
2023-05-14T19:53:50.259Z,4.70
2023-05-14T19:56:16.840Z,4.93
2023-05-14T19:58:44.631Z,4.03
2023-05-14T20:01:12.012Z,4.47
2023-05-14T20:03:38.796Z,4.57
2023-05-14T20:06:06.605Z,5.45
2023-05-14T20:08:33.333Z,4.05
2023-05-14T20:10:59.853Z,4.50
2023-05-14T20:13:26.281Z,5.38
2023-05-14T20:15:52.892Z,4.45
2023-05-14T20:18:19.340Z,4.80
2023-05-14T20:20:45.897Z,4.75
2023-05-14T20:23:12.448Z,5.53
2023-05-14T20:25:39.278Z,4.60
2023-05-14T20:28:05.766Z,5.28
2023-05-14T20:30:32.564Z,5.32
2023-05-14T20:32:59.557Z,4.60
2023-05-14T20:35:26.524Z,4.43
2023-05-14T20:37:56.309Z,5.43
2023-05-14T20:40:22.885Z,5.32
2023-05-14T20:42:50.444Z,4.72
2023-05-14T20:45:17.031Z,4.75
2023-05-14T20:47:43.512Z,5.20
2023-05-14T20:50:10.233Z,5.15
2023-05-14T20:52:36.757Z,5.00
2023-05-14T20:55:03.406Z,5.13
2023-05-14T20:57:30.283Z,5.13
2023-05-14T20:59:56.882Z,5.32
2023-05-14T21:02:23.549Z,4.57
2023-05-14T21:04:50.829Z,4.90
2023-05-14T21:07:17.484Z,4.65
2023-05-14T21:09:46.483Z,4.35
2023-05-14T21:12:12.958Z,4.85
2023-05-14T21:14:39.423Z,5.38
2023-05-14T21:17:06.110Z,4.90
2023-05-14T21:19:32.848Z,4.88
2023-05-14T21:21:59.438Z,5.43
2023-05-14T21:24:25.893Z,5.25
2023-05-14T21:26:53.699Z,5.03
2023-05-14T21:29:20.286Z,5.15
2023-05-14T21:31:48.483Z,4.57
2023-05-14T21:34:14.974Z,4.80
2023-05-14T21:36:41.659Z,6.00
2023-05-14T21:39:08.105Z,6.00
2023-05-14T21:41:34.560Z,4.90
2023-05-14T21:44:01.081Z,4.53
2023-05-14T21:46:28.967Z,4.57
2023-05-14T21:48:56.516Z,5.45
2023-05-14T21:51:23.129Z,5.05
2023-05-14T21:53:49.911Z,5.18
2023-05-14T21:56:16.554Z,4.63
2023-05-14T21:58:44.212Z,5.40
2023-05-14T22:01:11.547Z,5.68
2023-05-14T22:03:38.517Z,5.13
2023-05-14T22:06:06.808Z,4.82
2023-05-14T22:08:33.435Z,5.07
2023-05-14T22:10:59.918Z,4.88
2023-05-14T22:13:26.454Z,5.13
2023-05-14T22:16:01.499Z,5.70
2023-05-14T22:18:38.650Z,6.20
2023-05-14T22:21:05.301Z,5.57
2023-05-14T22:23:34.429Z,5.72
2023-05-14T22:26:01.075Z,6.20
2023-05-14T22:28:27.577Z,5.53
2023-05-14T22:30:54.396Z,5.53
2023-05-14T22:33:20.968Z,5.97
2023-05-14T22:35:48.989Z,5.82
2023-05-14T22:38:15.677Z,5.82
2023-05-14T22:40:42.433Z,6.70
2023-05-14T22:43:08.896Z,5.80
2023-05-14T22:45:35.904Z,6.10
2023-05-14T22:48:02.487Z,6.30
2023-05-14T22:50:28.969Z,6.03
2023-05-14T22:52:55.409Z,6.88
2023-05-14T22:55:21.924Z,6.25
2023-05-14T22:57:48.437Z,6.65
2023-05-14T23:00:15.612Z,6.60
2023-05-14T23:02:42.404Z,6.22
2023-05-14T23:05:09.426Z,5.78
2023-05-14T23:07:37.436Z,6.57
2023-05-14T23:10:04.240Z,6.63
2023-05-14T23:12:30.706Z,6.43
2023-05-14T23:14:59.167Z,5.65
2023-05-14T23:17:28.827Z,6.45
2023-05-14T23:19:55.549Z,6.35
2023-05-14T23:22:22.238Z,6.40
2023-05-14T23:24:48.920Z,6.35
2023-05-14T23:27:15.549Z,6.20
2023-05-14T23:29:42.090Z,6.13
2023-05-14T23:32:09.118Z,6.32
2023-05-14T23:34:35.921Z,7.30
2023-05-14T23:37:02.515Z,6.18
2023-05-14T23:39:33.549Z,7.30
2023-05-14T23:42:00.166Z,6.70
2023-05-14T23:44:26.787Z,6.72
2023-05-14T23:46:53.614Z,6.82
2023-05-14T23:49:20.278Z,6.95
2023-05-14T23:51:46.886Z,6.50
2023-05-14T23:54:13.420Z,6.25
2023-05-14T23:56:40.563Z,6.38
2023-05-14T23:59:07.268Z,5.95
